Detall de PIREP

Printer-friendly versionPDF version

[2015/08/26 07:48:00]
Flight IATA:CT3220
Pilot Number:042
Company ICAO:CAT
Aircraft Type:B738/F
PAX:98
Departing Airport: LEPA
Destination Airport: LCLK
Alternate Airport:LCEN
Online: VATSIM
Route:OSGAL UN859 GENIO UM134 ANB UA411 MORJA UM978 KEMIR UA411 TUC UM978 DOBIX UN4 EVIRA UM978 LUBES
Flight Level:F350
No Slew and time accel
No pause
Crash detect
Detect pilot in Cockpit between each 30 and 45 minutes
07:48 Zero fuel Weight: 121806 Lbs, Fuel Weight: 46040 Lbs
07:48 VATSIM:LEPA 260730Z 01002KT 9999 FEW024 25/19 Q1018 NOSIG
07:48 VATSIM:LCLK 260730Z 03013KT 9999 FEW025 34/09 Q1008 NOSIG
07:58 Parking Brakes off
08:07 Take-off
08:07 Take off Weight: 166776 Lbs
08:07 Wind: 009º @ 002 Knots Heading: 239º
08:07 POS N39º 33´ 04´´ E002º 43´ 09´´
08:07 Flaps:5 at 166 Knots
08:07 Gear Up: 166 Knots
08:07 Flaps:4 at 169 Knots
08:08 Flaps:3 at 187 Knots
08:08 Flaps:2 at 212 Knots
08:08 Flaps:1 at 216 Knots
08:09 Flaps:0 at 235 Knots
08:22 Wind:243º@007 Knots Heading: 114º Ground Speed: 472 Knots Altitude 24904 ft
08:31 TOC
08:31 Fuel Weight: 40183 Lb
08:37 Wind:314º@012 Knots Heading: 110º Ground Speed: 472 Knots Altitude 35059 ft
08:52 Wind:300º@014 Knots Heading: 091º Ground Speed: 473 Knots Altitude 35082 ft
09:07 Wind:306º@012 Knots Heading: 102º Ground Speed: 472 Knots Altitude 35111 ft
09:22 Wind:310º@017 Knots Heading: 096º Ground Speed: 476 Knots Altitude 35101 ft
09:37 Wind:301º@019 Knots Heading: 098º Ground Speed: 480 Knots Altitude 35108 ft
09:52 Wind:280º@019 Knots Heading: 094º Ground Speed: 482 Knots Altitude 35072 ft
10:07 Wind:284º@017 Knots Heading: 096º Ground Speed: 480 Knots Altitude 35045 ft
10:22 Wind:268º@016 Knots Heading: 098º Ground Speed: 479 Knots Altitude 35055 ft
10:37 Wind:254º@021 Knots Heading: 095º Ground Speed: 485 Knots Altitude 34993 ft
10:52 Wind:244º@031 Knots Heading: 093º Ground Speed: 495 Knots Altitude 34872 ft
11:07 Wind:242º@039 Knots Heading: 095º Ground Speed: 502 Knots Altitude 34855 ft
11:15 TOD
11:15 Fuel Weight: 25059 Lb
11:22 Wind:259º@021 Knots Heading: 091º Ground Speed: 436 Knots Altitude 19028 ft
11:33 Flaps:1 at 215 Knots
11:34 Flaps:2 at 209 Knots
11:35 Flaps:3 at 197 Knots
11:36 Gear Down: 170 Knots
11:36 Flaps:4 at 170 Knots
11:37 Wind:083º@005 Knots Heading: 013º Ground Speed: 180 Knots Altitude 2509 ft
11:37 Flaps:5 at 173 Knots
11:37 Flaps:6 at 173 Knots
11:38 Flaps:7 at 172 Knots
11:38 Flaps:8 at 156 Knots
11:40 TouchDown:Rate -148 ft/min Speed: 138 Knots
11:40 VATSIM:LCLK 261130Z 10014KT 9999 FEW025TCU 32/23 Q1007 NOSIG
11:40 Land
11:40 Wind:099º@014 Knots
11:40 Heading: 226º
11:40 Flight Duration: 03:33
11:40 Landing Weight: 145729 Lbs
11:40 POS N34º 52´ 21´´ E033º 37´ 21´´
11:43 Parking brakes on
11:43 Block to Block Duration: 03:45
11:43 Final Fuel: 23657 Lbls
11:43 Spent Fuel: 22383 Lbls
11:43 Flight Length: 1620 NM
11:43 TOD Land Length: 136 NM

Exportar CSV

Powered by Drupal - Modified by Danger4k